Time;durP1;ratioP1;P1;durP2;ratioP2;P2;SDS_P1;SDS_P2;PMS_P1;PMS_P2;Temp;Humidity;BMP_temperature;BMP_pressure;BME280_temperature;BME280_humidity;BME280_pressure;Samples;Min_cycle;Max_cycle;Signal;HPM_P1;HPM_P2
2023/10/26 00:01:21;;;;;;;27.92;9.85;;;;;;;14.50;100.00;63493.53;5120224;27;20224;-77
2023/10/26 00:03:48;;;;;;;27.23;10.00;;;;;;;14.31;100.00;63471.75;5133210;27;20200;-77
2023/10/26 00:06:15;;;;;;;29.08;8.60;;;;;;;14.37;100.00;63482.59;5116577;27;20227;-77
2023/10/26 00:08:42;;;;;;;25.88;10.05;;;;;;;14.39;100.00;63480.06;5138337;27;20286;-77
2023/10/26 00:11:09;;;;;;;23.02;8.82;;;;;;;14.40;100.00;63488.81;5126924;27;20558;-76
2023/10/26 00:13:38;;;;;;;20.58;7.80;;;;;;;14.41;100.00;63487.28;5122284;27;20259;-75
2023/10/26 00:16:05;;;;;;;22.92;7.68;;;;;;;14.36;100.00;63479.00;5119368;27;20208;-76
2023/10/26 00:18:32;;;;;;;15.85;7.05;;;;;;;14.45;100.00;63488.34;5114043;28;20417;-77
2023/10/26 00:21:00;;;;;;;25.60;6.25;;;;;;;14.42;100.00;63485.75;5128981;28;20271;-75
2023/10/26 00:23:27;;;;;;;19.00;6.80;;;;;;;14.38;100.00;63481.06;5129634;27;20196;-77
2023/10/26 00:25:54;;;;;;;16.08;5.57;;;;;;;14.39;100.00;63479.56;5142895;27;20223;-76
2023/10/26 00:28:21;;;;;;;14.23;6.68;;;;;;;14.39;100.00;63482.63;5113951;27;20214;-76
2023/10/26 00:30:49;;;;;;;16.50;6.15;;;;;;;14.35;100.00;63486.16;5116420;28;20568;-77
2023/10/26 00:33:16;;;;;;;18.33;7.03;;;;;;;14.34;100.00;63479.50;5129576;28;20229;-75
2023/10/26 00:35:44;;;;;;;16.90;6.40;;;;;;;14.27;100.00;63472.72;5124693;28;20272;-77
2023/10/26 00:38:12;;;;;;;18.35;6.78;;;;;;;14.28;100.00;63473.78;5127105;27;20195;-78
2023/10/26 00:40:39;;;;;;;15.95;7.50;;;;;;;14.32;100.00;63477.41;5149175;27;20251;-77
2023/10/26 00:43:05;;;;;;;21.05;6.72;;;;;;;14.27;100.00;63469.66;5140260;27;20254;-77
2023/10/26 00:45:36;;;;;;;15.32;5.75;;;;;;;14.14;100.00;63459.22;5121610;28;20231;-77
2023/10/26 00:48:06;;;;;;;17.77;6.47;;;;;;;14.17;100.00;63462.31;5138174;27;20188;-78
2023/10/26 00:50:34;;;;;;;13.80;5.82;;;;;;;14.16;100.00;63458.22;5126965;27;20215;-76
2023/10/26 00:53:01;;;;;;;15.15;5.65;;;;;;;14.16;100.00;63460.78;5148916;27;20507;-77
2023/10/26 00:55:28;;;;;;;13.07;4.78;;;;;;;14.16;100.00;63463.84;5123007;27;20227;-76
2023/10/26 00:57:56;;;;;;;12.85;5.20;;;;;;;14.18;100.00;63463.38;5123285;28;20195;-77
2023/10/26 01:00:23;;;;;;;11.55;4.88;;;;;;;14.20;100.00;63464.94;5125352;27;20219;-76
2023/10/26 01:02:50;;;;;;;10.25;4.07;;;;;;;14.34;100.00;63477.44;5128560;28;20488;-76
2023/10/26 01:05:18;;;;;;;11.88;5.13;;;;;;;14.33;100.00;63478.97;5122880;27;20214;-76
2023/10/26 01:07:46;;;;;;;11.38;4.10;;;;;;;14.34;100.00;63479.50;5148830;27;20199;-76
2023/10/26 01:10:13;;;;;;;5.93;4.05;;;;;;;14.37;100.00;63485.69;5147555;27;20526;-77
2023/10/26 01:12:40;;;;;;;10.23;4.20;;;;;;;14.38;100.00;63484.16;5124758;27;20401;-77
2023/10/26 01:15:08;;;;;;;7.50;4.10;;;;;;;14.50;100.00;63496.09;5106702;28;20210;-76
2023/10/26 01:17:36;;;;;;;8.68;4.18;;;;;;;14.53;100.00;63496.66;5108168;28;20262;-75
2023/10/26 01:20:04;;;;;;;7.05;3.92;;;;;;;14.55;100.00;63499.25;5110773;28;20232;-76
2023/10/26 01:22:33;;;;;;;11.15;4.13;;;;;;;14.55;100.00;63501.28;5115008;27;20392;-77
2023/10/26 01:25:00;;;;;;;7.80;3.42;;;;;;;14.61;100.00;63504.97;5120856;28;20202;-76
2023/10/26 01:27:27;;;;;;;9.85;3.35;;;;;;;14.55;100.00;63501.28;5123507;28;20226;-76
2023/10/26 01:29:55;;;;;;;12.15;3.47;;;;;;;14.61;100.00;63502.41;5106193;28;20380;-76
2023/10/26 01:32:22;;;;;;;6.78;3.60;;;;;;;14.50;100.00;63493.53;5107092;28;20203;-77
2023/10/26 01:34:49;;;;;;;5.97;3.22;;;;;;;14.50;100.00;63491.50;5105689;28;20234;-76
2023/10/26 01:37:15;;;;;;;7.38;2.83;;;;;;;14.51;100.00;63494.59;5117043;27;20478;-76
2023/10/26 01:39:44;;;;;;;5.60;3.03;;;;;;;14.47;100.00;63493.50;5140594;27;20195;-76
2023/10/26 01:42:12;;;;;;;9.35;3.50;;;;;;;14.50;100.00;63494.06;5125070;27;20316;-75
2023/10/26 01:44:39;;;;;;;5.97;2.90;;;;;;;14.54;100.00;63500.25;5108677;28;20196;-76
2023/10/26 01:47:06;;;;;;;7.63;3.30;;;;;;;14.56;100.00;63499.78;5105605;28;20253;-76
2023/10/26 01:49:33;;;;;;;6.13;2.28;;;;;;;14.68;100.00;63514.81;5109135;27;20496;-75
2023/10/26 01:52:00;;;;;;;5.47;2.88;;;;;;;14.80;100.00;63530.34;5132922;27;20226;-76
2023/10/26 01:54:27;;;;;;;7.32;4.28;;;;;;;14.85;100.00;63532.97;5126085;28;20199;-76
2023/10/26 01:56:56;;;;;;;17.73;5.15;;;;;;;14.69;100.00;63506.09;5107887;28;20216;-74
2023/10/26 01:59:23;;;;;;;14.57;4.50;;;;;;;14.64;100.00;63513.72;5121484;28;20252;-76
2023/10/26 02:01:50;;;;;;;20.02;4.43;;;;;;;14.59;100.00;63505.44;5120421;27;20223;-76
2023/10/26 02:04:16;;;;;;;9.77;4.93;;;;;;;14.55;100.00;63499.25;5124700;28;20195;-75
2023/10/26 02:06:43;;;;;;;12.73;4.05;;;;;;;14.52;100.00;63493.56;5124658;27;20230;-76
2023/10/26 02:09:10;;;;;;;18.80;5.30;;;;;;;14.43;100.00;63486.78;5109392;28;20204;-76
2023/10/26 02:11:37;;;;;;;15.02;5.28;;;;;;;14.32;100.00;63475.38;5123854;28;20229;-76
2023/10/26 02:14:05;;;;;;;19.67;6.43;;;;;;;14.20;100.00;63465.47;5124901;28;20396;-76
2023/10/26 02:16:32;;;;;;;19.73;5.53;;;;;;;14.22;100.00;63464.44;5124169;27;20232;-76
2023/10/26 02:18:59;;;;;;;17.77;5.05;;;;;;;14.09;100.00;63453.50;5124013;27;20203;-76
2023/10/26 02:21:26;;;;;;;13.77;5.32;;;;;;;14.02;100.00;63443.69;5104486;28;20224;-77
2023/10/26 02:23:53;;;;;;;13.82;4.78;;;;;;;14.05;100.00;63446.81;5111995;28;20447;-76
2023/10/26 02:26:20;;;;;;;10.13;4.90;;;;;;;14.00;100.00;63441.59;5123874;27;20231;-76
2023/10/26 02:28:47;;;;;;;14.40;4.82;;;;;;;13.91;100.00;63432.78;5119874;28;20199;-76
2023/10/26 02:31:16;;;;;;;14.10;5.20;;;;;;;13.96;100.00;63434.91;5105601;28;20223;-77
2023/10/26 02:33:43;;;;;;;14.68;5.55;;;;;;;13.89;100.00;63430.72;5106412;28;20192;-76
2023/10/26 02:36:10;;;;;;;13.15;4.72;;;;;;;13.93;100.00;63434.84;5119347;28;20242;-76
2023/10/26 02:38:37;;;;;;;16.83;4.30;;;;;;;13.88;100.00;63432.22;5118381;27;20198;-76
2023/10/26 02:41:05;;;;;;;19.63;5.38;;;;;;;13.76;100.00;63417.72;5109761;28;20215;-77
2023/10/26 02:43:32;;;;;;;9.75;4.22;;;;;;;13.86;100.00;63425.53;5124889;27;20198;-76
2023/10/26 02:46:04;;;;;;;11.40;4.00;;;;;;;13.94;100.00;63438.97;5140649;27;20236;-77
2023/10/26 02:48:33;;;;;;;8.65;4.32;;;;;;;13.85;100.00;63424.00;5145707;27;20202;-76
2023/10/26 02:51:00;;;;;;;12.02;3.88;;;;;;;13.77;100.00;63418.25;5150153;27;20330;-76
2023/10/26 02:53:27;;;;;;;14.40;4.45;;;;;;;13.81;100.00;63422.91;5140640;27;20206;-76
2023/10/26 02:55:54;;;;;;;14.93;5.00;;;;;;;13.80;100.00;63421.38;5128765;28;20314;-77
2023/10/26 02:58:21;;;;;;;17.45;4.05;;;;;;;13.82;100.00;63428.56;5113051;28;20239;-76
2023/10/26 03:00:48;;;;;;;11.82;3.78;;;;;;;13.84;100.00;63428.06;5108706;28;20239;-77
2023/10/26 03:03:16;;;;;;;12.48;5.13;;;;;;;13.84;100.00;63430.63;5123324;27;20201;-76
2023/10/26 03:05:44;;;;;;;10.38;4.10;;;;;;;13.76;100.00;63417.72;5128034;28;20219;-76
2023/10/26 03:08:12;;;;;;;11.38;3.92;;;;;;;13.81;100.00;63428.03;5117490;28;20249;-76
2023/10/26 03:10:39;;;;;;;18.65;4.35;;;;;;;13.80;100.00;63424.44;5109459;28;20299;-75
2023/10/26 03:13:06;;;;;;;14.52;4.05;;;;;;;13.83;100.00;63425.00;5125606;28;20492;-76
2023/10/26 03:15:33;;;;;;;6.50;3.55;;;;;;;13.79;100.00;63422.88;5108891;28;20219;-75
2023/10/26 03:18:00;;;;;;;13.57;3.92;;;;;;;13.77;100.00;63421.31;5109240;28;20199;-77
2023/10/26 03:20:26;;;;;;;11.48;4.00;;;;;;;13.81;100.00;63422.41;5112074;28;20223;-77
2023/10/26 03:22:55;;;;;;;13.02;4.28;;;;;;;13.77;100.00;63418.75;5125579;28;20196;-76
2023/10/26 03:25:22;;;;;;;15.65;4.53;;;;;;;13.73;100.00;63411.53;5113821;28;20453;-76
2023/10/26 03:27:53;;;;;;;13.98;3.80;;;;;;;13.68;100.00;63411.47;5128179;27;20431;-77
2023/10/26 03:30:36;;;;;;;8.90;3.13;;;;;;;13.84;100.00;63426.03;5128226;27;20278;-75
2023/10/26 03:33:12;;;;;;;11.73;4.57;;;;;;;13.78;100.00;63419.28;5136236;27;20484;-76
2023/10/26 03:35:41;;;;;;;9.27;3.92;;;;;;;13.68;100.00;63409.41;5134558;28;20448;-77
2023/10/26 03:38:09;;;;;;;13.82;3.85;;;;;;;13.68;100.00;63411.97;5131891;27;20203;-76
2023/10/26 03:40:37;;;;;;;10.50;3.80;;;;;;;13.79;100.00;63420.31;5109711;28;20216;-75
2023/10/26 03:43:05;;;;;;;15.15;3.97;;;;;;;13.74;100.00;63418.22;5116904;28;20199;-75
2023/10/26 03:45:31;;;;;;;16.08;3.97;;;;;;;13.72;100.00;63410.50;5116815;27;20237;-78
2023/10/26 03:47:59;;;;;;;9.77;4.05;;;;;;;13.73;100.00;63417.19;5128328;27;20223;-75
2023/10/26 03:50:26;;;;;;;9.02;3.55;;;;;;;13.69;100.00;63410.47;5112993;28;20231;-75
2023/10/26 03:52:53;;;;;;;13.27;4.18;;;;;;;13.61;100.00;63404.72;5115921;27;20201;-75
2023/10/26 03:55:22;;;;;;;15.07;5.40;;;;;;;13.57;100.00;63400.03;5127919;27;20215;-77
2023/10/26 03:57:49;;;;;;;10.43;4.93;;;;;;;13.56;100.00;63393.91;5145191;27;20415;-76
2023/10/26 04:00:17;;;;;;;6.70;3.47;;;;;;;13.63;100.00;63411.41;5129209;27;20326;-76
2023/10/26 04:02:45;;;;;;;11.90;5.47;;;;;;;13.67;100.00;63412.97;5124113;27;20197;-76
2023/10/26 04:05:12;;;;;;;7.57;3.70;;;;;;;13.62;100.00;63405.75;5138076;27;20192;-77
2023/10/26 04:07:39;;;;;;;16.50;4.53;;;;;;;13.59;100.00;63397.00;5135964;27;20461;-77
2023/10/26 04:10:08;;;;;;;8.85;4.80;;;;;;;13.55;100.00;63401.06;5128752;28;20206;-77
2023/10/26 04:12:37;;;;;;;11.52;3.92;;;;;;;13.51;100.00;63388.72;5127742;27;20293;-76
2023/10/26 04:15:06;;;;;;;10.25;4.07;;;;;;;13.58;100.00;63401.09;5128891;28;20207;-78
2023/10/26 04:17:32;;;;;;;8.10;4.43;;;;;;;13.56;100.00;63404.13;5125977;27;20195;-77
2023/10/26 04:19:59;;;;;;;9.38;4.18;;;;;;;13.59;100.00;63400.09;5117831;28;20204;-77
2023/10/26 04:22:27;;;;;;;13.70;4.28;;;;;;;13.62;100.00;63405.75;5127639;27;20382;-76
2023/10/26 04:24:55;;;;;;;10.25;4.03;;;;;;;13.56;100.00;63404.63;5126347;28;20203;-76
2023/10/26 04:27:22;;;;;;;6.95;3.63;;;;;;;13.62;100.00;63410.88;5119455;27;20239;-77
2023/10/26 04:29:51;;;;;;;16.75;3.67;;;;;;;13.67;100.00;63403.28;5125295;27;20202;-76
2023/10/26 04:32:18;;;;;;;9.95;3.72;;;;;;;13.67;100.00;63410.94;5136842;27;20289;-76
2023/10/26 04:34:46;;;;;;;11.95;4.40;;;;;;;13.63;100.00;63403.72;5128026;27;20232;-77
2023/10/26 04:37:13;;;;;;;14.27;4.20;;;;;;;13.62;100.00;63408.31;5133630;27;20211;-76
2023/10/26 04:39:43;;;;;;;10.68;4.13;;;;;;;13.75;100.00;63416.19;5136078;27;20191;-77
2023/10/26 04:42:10;;;;;;;10.35;4.80;;;;;;;13.72;100.00;63420.72;5113431;28;20584;-77
2023/10/26 04:44:37;;;;;;;13.70;4.63;;;;;;;13.74;100.00;63417.69;5120854;28;20464;-76
2023/10/26 04:47:06;;;;;;;6.47;3.95;;;;;;;13.73;100.00;63417.19;5121010;28;20227;-77
2023/10/26 04:49:33;;;;;;;10.23;4.05;;;;;;;13.74;100.00;63410.00;5126353;27;20195;-77
2023/10/26 04:52:01;;;;;;;9.07;4.75;;;;;;;13.74;100.00;63417.69;5137761;27;20226;-79
2023/10/26 04:54:28;;;;;;;6.88;4.00;;;;;;;13.72;100.00;63413.56;5122262;28;20215;-76
2023/10/26 04:56:56;;;;;;;11.38;4.50;;;;;;;13.75;100.00;63418.75;5129438;28;20371;-78
2023/10/26 04:59:23;;;;;;;11.38;4.50;;;;;;;13.74;100.00;63412.56;5109062;28;20222;-77
2023/10/26 05:01:50;;;;;;;10.48;5.13;;;;;;;13.80;100.00;63423.94;5107550;28;20212;-78
2023/10/26 05:04:18;;;;;;;13.52;4.60;;;;;;;13.79;100.00;63422.88;5113048;28;20263;-77
2023/10/26 05:06:45;;;;;;;11.48;5.10;;;;;;;13.79;100.00;63420.84;5114940;28;20211;-77
2023/10/26 05:09:12;;;;;;;11.65;4.75;;;;;;;13.78;100.00;63422.38;5107074;28;20192;-76
2023/10/26 05:11:39;;;;;;;9.13;4.50;;;;;;;13.68;100.00;63411.47;5108285;28;20215;-77
2023/10/26 05:14:08;;;;;;;6.68;4.35;;;;;;;13.70;100.00;63411.50;5127108;28;20200;-75
2023/10/26 05:16:36;;;;;;;9.82;4.65;;;;;;;13.66;100.00;63409.38;5113813;28;20239;-76
2023/10/26 05:19:04;;;;;;;13.90;5.40;;;;;;;13.77;100.00;63421.31;5107778;28;20241;-76
2023/10/26 05:21:32;;;;;;;13.05;4.25;;;;;;;13.77;100.00;63415.69;5119273;28;20231;-76
2023/10/26 05:23:59;;;;;;;7.72;4.22;;;;;;;13.75;100.00;63418.75;5126411;27;20217;-75
2023/10/26 05:26:26;;;;;;;7.40;4.10;;;;;;;13.85;100.00;63426.56;5126603;28;20222;-76
2023/10/26 05:28:53;;;;;;;8.90;4.10;;;;;;;13.89;100.00;63433.78;5122127;27;20223;-77
2023/10/26 05:31:20;;;;;;;8.88;4.18;;;;;;;14.20;100.00;63470.06;5126385;28;20221;-76
2023/10/26 05:33:47;;;;;;;10.98;4.28;;;;;;;14.12;100.00;63457.13;5125147;28;20254;-76
2023/10/26 05:36:15;;;;;;;15.20;5.00;;;;;;;14.20;100.00;63465.47;5127709;28;20480;-75
2023/10/26 05:38:43;;;;;;;12.27;3.63;;;;;;;14.25;100.00;63465.00;5125338;27;20206;-76
2023/10/26 05:41:11;;;;;;;7.65;3.65;;;;;;;14.41;100.00;63487.28;5148753;27;20289;-76
2023/10/26 05:43:38;;;;;;;14.52;4.22;;;;;;;14.51;100.00;63497.66;5132923;27;20195;-77
2023/10/26 05:46:06;;;;;;;4.13;3.63;;;;;;;14.67;100.00;63511.19;5122442;27;20265;-75
2023/10/26 05:48:34;;;;;;;12.35;3.65;;;;;;;14.74;100.00;63526.16;5140803;27;20218;-76
2023/10/26 05:51:00;;;;;;;6.63;4.72;;;;;;;14.87;100.00;63534.53;5134034;27;20236;-77
2023/10/26 05:53:27;;;;;;;9.55;4.00;;;;;;;15.00;100.00;63548.03;5127213;27;20512;-76
2023/10/26 05:56:00;;;;;;;7.65;3.78;;;;;;;15.14;100.00;63562.06;5126741;28;20218;-76
2023/10/26 05:58:27;;;;;;;5.63;3.42;;;;;;;15.25;100.00;63571.47;5123778;27;20250;-76
2023/10/26 06:00:54;;;;;;;10.85;3.42;;;;;;;15.36;100.00;63582.88;5131090;27;20218;-75
2023/10/26 06:03:23;;;;;;;15.30;3.67;;;;;;;15.27;100.00;63578.69;5146611;27;20191;-76
2023/10/26 06:05:50;;;;;;;13.88;4.32;;;;;;;15.16;100.00;63564.16;5133404;27;20272;-75
2023/10/26 06:08:18;;;;;;;13.20;3.50;;;;;;;14.94;100.00;63539.25;5119536;27;20233;-77
2023/10/26 06:10:45;;;;;;;8.63;3.33;;;;;;;14.89;100.00;63536.63;5117032;27;20219;-76
2023/10/26 06:13:14;;;;;;;14.20;4.05;;;;;;;15.00;100.00;63551.13;5127511;27;20202;-76
2023/10/26 06:15:42;;;;;;;11.23;3.35;;;;;;;14.82;100.00;63527.28;5120470;27;20222;-76
2023/10/26 06:18:09;;;;;;;15.07;4.72;;;;;;;14.92;100.00;63537.16;5125343;28;20195;-76
2023/10/26 06:20:37;;;;;;;9.05;3.13;;;;;;;14.94;100.00;63542.31;5124693;28;20250;-75
2023/10/26 06:23:06;;;;;;;19.25;4.63;;;;;;;15.06;100.00;63552.22;5119841;28;20209;-75
2023/10/26 06:25:35;;;;;;;13.13;4.18;;;;;;;15.05;100.00;63551.19;5133789;27;20267;-75
2023/10/26 06:28:03;;;;;;;14.55;4.18;;;;;;;15.06;100.00;63552.22;5142486;27;20219;-75
2023/10/26 06:30:32;;;;;;;26.15;5.20;;;;;;;15.12;100.00;63560.00;5136373;27;20343;-74
2023/10/26 06:33:00;;;;;;;10.60;3.92;;;;;;;15.16;100.00;63564.16;5133356;28;20214;-76
2023/10/26 06:35:27;;;;;;;9.00;3.42;;;;;;;15.12;100.00;63557.94;5109929;28;20219;-77
2023/10/26 06:37:54;;;;;;;5.90;2.85;;;;;;;15.17;100.00;63570.84;5118971;28;20523;-75
2023/10/26 06:40:21;;;;;;;18.33;3.60;;;;;;;15.31;100.00;63577.16;5120380;28;20217;-75
2023/10/26 06:42:49;;;;;;;10.70;3.55;;;;;;;15.41;100.00;63593.22;5124827;27;20560;-75
2023/10/26 06:45:16;;;;;;;9.13;3.15;;;;;;;15.60;100.00;63609.91;5126050;28;20253;-76
2023/10/26 06:47:44;;;;;;;4.68;3.28;;;;;;;15.61;100.00;63608.91;5143494;28;20232;-75
2023/10/26 06:50:11;;;;;;;10.52;3.08;;;;;;;15.70;100.00;63618.25;5128070;27;20225;-75
2023/10/26 06:52:38;;;;;;;7.90;2.80;;;;;;;15.80;100.00;63630.69;5126339;28;20231;-75
2023/10/26 06:55:06;;;;;;;6.55;3.53;;;;;;;15.89;100.00;63640.06;5122247;28;20190;-75
2023/10/26 06:57:35;;;;;;;12.18;3.08;;;;;;;15.99;100.00;63653.53;5128054;27;20199;-75
2023/10/26 07:00:02;;;;;;;8.80;3.17;;;;;;;16.08;100.00;63657.75;5127517;28;20250;-75
2023/10/26 07:02:31;;;;;;;13.82;4.03;;;;;;;16.02;100.00;63648.97;5121813;28;20428;-76
2023/10/26 07:05:00;;;;;;;5.97;3.25;;;;;;;16.12;100.00;63661.91;5112735;28;20518;-76
2023/10/26 07:07:27;;;;;;;5.13;3.65;;;;;;;16.16;100.00;63668.66;5113534;28;20402;-76
2023/10/26 07:09:55;;;;;;;7.00;3.70;;;;;;;16.23;100.00;63672.84;5111794;28;20549;-76
2023/10/26 07:12:22;;;;;;;14.00;4.55;;;;;;;16.27;100.00;63674.44;5123104;28;20221;-77
2023/10/26 07:14:53;;;;;;;5.95;4.07;;;;;;;16.31;100.00;63686.28;5095246;27;20247;-76
2023/10/26 07:17:21;;;;;;;14.02;4.32;;;;;;;16.29;100.00;63678.56;5045901;28;20390;-77
2023/10/26 07:19:48;;;;;;;7.07;3.90;;;;;;;16.39;100.00;63694.63;5062218;28;20509;-76
2023/10/26 07:22:18;;;;;;;8.65;3.40;;;;;;;16.48;100.00;63698.34;5056045;28;20218;-76
2023/10/26 07:24:45;;;;;;;9.43;3.88;;;;;;;16.55;100.00;63708.22;5047307;28;20400;-75
2023/10/26 07:27:12;;;;;;;11.05;4.18;;;;;;;16.55;100.00;63706.13;5048273;28;20277;-76
2023/10/26 07:29:39;;;;;;;8.52;3.92;;;;;;;16.44;100.00;63699.84;5047866;28;20197;-76
2023/10/26 07:32:07;;;;;;;7.18;4.28;;;;;;;16.42;100.00;63694.66;5045758;28;20463;-76
2023/10/26 07:37:17;;;;;;;15.48;4.50;;;;;;;16.16;100.00;63665.56;5044904;28;20221;-76
2023/10/26 07:39:47;;;;;;;15.13;5.05;;;;;;;16.13;100.00;63662.94;5046630;28;20217;-75
2023/10/26 07:42:14;;;;;;;14.63;5.40;;;;;;;16.03;100.00;63652.56;5043214;28;20221;-77
2023/10/26 07:44:41;;;;;;;14.25;4.60;;;;;;;16.05;100.00;63659.25;5045160;28;20252;-77
2023/10/26 07:47:08;;;;;;;5.35;4.40;;;;;;;16.12;100.00;63666.53;5046003;28;20221;-76
2023/10/26 07:49:35;;;;;;;8.88;4.43;;;;;;;16.25;100.00;63674.41;5049210;28;20237;-75
2023/10/26 07:52:02;;;;;;;14.38;4.50;;;;;;;16.40;100.00;63690.53;5045455;28;20229;-76
2023/10/26 07:54:31;;;;;;;14.23;4.90;;;;;;;16.54;100.00;63707.69;5048473;28;20220;-77
2023/10/26 07:56:58;;;;;;;9.80;4.32;;;;;;;16.40;100.00;63687.94;5047956;28;20528;-77
2023/10/26 07:59:25;;;;;;;14.93;4.75;;;;;;;16.19;100.00;63673.81;5044432;28;20231;-76
2023/10/26 08:01:52;;;;;;;15.90;5.10;;;;;;;16.17;100.00;63667.13;5047298;28;20228;-77
2023/10/26 08:04:19;;;;;;;12.25;3.85;;;;;;;16.23;100.00;63674.88;5049771;28;20194;-77
2023/10/26 08:06:46;;;;;;;9.32;3.97;;;;;;;16.41;100.00;63693.63;5046751;28;20244;-76
2023/10/26 08:09:13;;;;;;;17.38;4.15;;;;;;;16.50;100.00;63698.38;5047188;28;20231;-77
2023/10/26 08:11:42;;;;;;;11.35;4.15;;;;;;;16.67;100.00;63718.63;5048692;28;20328;-77
2023/10/26 08:14:09;;;;;;;9.95;4.15;;;;;;;16.82;100.00;63731.69;5036061;28;20213;-77
2023/10/26 08:16:36;;;;;;;10.60;4.28;;;;;;;16.85;100.00;63739.94;5043859;28;20241;-76
2023/10/26 08:19:03;;;;;;;8.68;5.07;;;;;;;16.83;100.00;63737.31;5047989;28;20197;-76
2023/10/26 08:21:30;;;;;;;16.40;5.07;;;;;;;16.81;100.00;63740.38;5049511;28;20262;-77
2023/10/26 08:23:57;;;;;;;13.20;5.68;;;;;;;17.09;100.00;63764.38;5050116;28;20194;-78
2023/10/26 08:26:24;;;;;;;13.00;5.05;;;;;;;17.28;100.00;63779.03;5047065;28;20225;-77
2023/10/26 08:28:52;;;;;;;12.05;4.80;;;;;;;17.41;100.00;63797.19;5047895;28;20233;-77
2023/10/26 08:31:19;;;;;;;19.27;4.82;;;;;;;17.53;100.00;63812.28;5045832;28;20323;-77
2023/10/26 08:33:47;;;;;;;11.95;4.53;;;;;;;17.61;100.00;63818.56;5048081;28;20248;-77
2023/10/26 08:36:13;;;;;;;9.75;4.75;;;;;;;17.77;100.00;63832.13;5047485;28;20220;-77
2023/10/26 08:38:40;;;;;;;14.80;5.13;;;;;;;17.82;100.00;63840.44;5048111;28;20239;-76
2023/10/26 08:41:13;;;;;;;11.20;4.47;;;;;;;17.94;100.00;63849.81;5045993;28;20414;-77
2023/10/26 08:43:41;;;;;;;11.50;4.25;;;;;;;18.04;100.00;63863.34;5047722;28;20490;-77
2023/10/26 08:46:12;;;;;;;12.45;4.95;;;;;;;18.11;100.00;63868.06;5044037;28;20221;-77
2023/10/26 08:48:40;;;;;;;12.18;4.65;;;;;;;18.15;100.00;63874.28;5049841;28;20213;-77
2023/10/26 08:51:08;;;;;;;8.27;4.20;;;;;;;18.30;100.00;63893.00;5049762;28;20340;-78
2023/10/26 08:53:35;;;;;;;10.63;4.03;;;;;;;18.50;100.00;63908.16;5047399;28;20502;-79
2023/10/26 08:56:03;;;;;;;12.70;3.92;;;;;;;18.66;100.00;63924.84;5047730;28;20236;-78
2023/10/26 08:58:30;;;;;;;11.77;4.07;;;;;;;18.63;100.00;63918.63;5049238;28;20189;-77
2023/10/26 09:00:58;;;;;;;9.65;4.22;;;;;;;18.78;100.00;63942.00;5048307;28;20223;-77
2023/10/26 09:03:26;;;;;;;15.27;4.53;;;;;;;18.78;100.00;63942.00;5036291;28;20265;-78
2023/10/26 09:05:54;;;;;;;13.63;5.13;;;;;;;18.74;100.00;63932.69;5043489;28;20285;-78
2023/10/26 09:08:23;;;;;;;12.60;4.32;;;;;;;18.74;100.00;63935.25;5047963;28;20422;-77
2023/10/26 09:10:50;;;;;;;16.55;4.43;;;;;;;18.95;100.00;63955.06;5046503;28;20221;-78
2023/10/26 09:13:25;;;;;;;10.32;4.43;;;;;;;19.07;100.00;63972.75;5045783;28;20228;-78
2023/10/26 09:15:53;;;;;;;9.82;3.72;;;;;;;19.42;91.81;64003.56;5047726;28;20225;-79
2023/10/26 09:18:21;;;;;;;7.22;4.65;;;;;;;19.62;90.30;64023.91;5049562;28;20208;-80
2023/10/26 09:21:10;;;;;;;15.02;4.15;;;;;;;19.91;90.16;64056.75;5049569;28;20229;-79
2023/10/26 09:23:39;;;;;;;13.90;4.30;;;;;;;20.00;93.52;64066.66;5048622;28;20513;-78
2023/10/26 09:26:08;;;;;;;14.30;5.05;;;;;;;19.97;92.02;64066.13;5048088;28;20214;-80
2023/10/26 09:28:54;;;;;;;14.48;4.50;;;;;;;19.95;90.55;64060.94;5047487;28;20623;-79
2023/10/26 09:31:21;;;;;;;11.02;4.97;;;;;;;19.86;89.61;64048.97;5048611;28;20217;-80
2023/10/26 09:33:49;;;;;;;6.53;3.80;;;;;;;19.86;85.58;64046.38;5048240;28;20201;-77
2023/10/26 09:36:20;;;;;;;16.98;4.30;;;;;;;20.05;87.13;64073.94;5048610;28;20251;-79
2023/10/26 09:38:47;;;;;;;8.27;3.67;;;;;;;20.40;84.30;64105.84;5049049;28;20199;-79
2023/10/26 09:41:17;;;;;;;17.77;3.53;;;;;;;20.73;75.12;64136.63;5049339;28;20411;-79
2023/10/26 09:43:44;;;;;;;12.10;3.75;;;;;;;20.87;67.85;64151.25;5049074;28;20197;-78
2023/10/26 09:46:12;;;;;;;9.88;4.35;;;;;;;20.58;68.73;64129.28;5048229;28;20316;-78
2023/10/26 09:48:40;;;;;;;6.72;3.53;;;;;;;20.72;68.89;64138.72;5049745;28;20256;-78
2023/10/26 09:51:08;;;;;;;8.98;3.05;;;;;;;20.85;62.77;64149.69;5049476;28;20305;-78
2023/10/26 09:53:40;;;;;;;8.63;3.75;;;;;;;20.90;62.07;64159.56;5048897;28;20208;-79
2023/10/26 09:56:14;;;;;;;14.52;3.15;;;;;;;21.08;62.16;64176.31;5049692;28;20263;-80
2023/10/26 09:58:42;;;;;;;10.23;3.40;;;;;;;21.04;61.35;64174.72;5049868;28;20217;-79
2023/10/26 10:01:32;;;;;;;7.60;3.30;;;;;;;20.90;60.74;64159.56;5049432;28;20239;-79
2023/10/26 10:03:59;;;;;;;9.80;3.50;;;;;;;20.95;61.95;64165.31;5050201;28;20243;-80
2023/10/26 10:06:52;;;;;;;6.32;2.67;;;;;;;21.36;59.86;64210.22;5048272;28;20251;-80
2023/10/26 10:09:22;;;;;;;10.15;2.45;;;;;;;21.70;53.68;64238.47;5050095;28;20285;-79
2023/10/26 10:12:26;;;;;;;10.00;2.30;;;;;;;21.64;50.69;64242.56;5050493;28;20400;-80
2023/10/26 10:14:58;;;;;;;7.07;2.40;;;;;;;21.58;52.17;64231.13;5049848;28;20219;-77
2023/10/26 10:18:02;;;;;;;7.18;2.50;;;;;;;22.07;56.47;64281.81;5049708;28;20240;-79
2023/10/26 10:20:30;;;;;;;11.20;3.05;;;;;;;22.47;53.69;64323.09;5045053;28;20237;-80
2023/10/26 10:22:59;;;;;;;4.70;2.30;;;;;;;22.45;48.29;64318.44;5050810;28;20512;-82
2023/10/26 10:25:58;;;;;;;4.82;2.53;;;;;;;22.65;48.51;64344.53;5050362;28;20279;-79
2023/10/26 10:28:40;;;;;;;5.50;2.92;;;;;;;22.54;47.04;64336.16;5048767;28;20189;-79
2023/10/26 10:31:09;;;;;;;8.15;2.40;;;;;;;22.39;46.05;64317.88;5050885;28;20288;-79
2023/10/26 10:33:41;;;;;;;5.38;1.90;;;;;;;22.79;47.17;64357.13;5049862;28;20272;-79
2023/10/26 10:36:11;;;;;;;8.27;3.05;;;;;;;22.84;45.17;64364.94;5050068;28;20240;-81
2023/10/26 10:38:44;;;;;;;8.95;2.33;;;;;;;22.76;46.31;64351.38;5049736;28;20201;-79
2023/10/26 10:41:15;;;;;;;5.43;1.95;;;;;;;22.97;46.12;64375.41;5044114;28;20225;-80
2023/10/26 10:43:47;;;;;;;4.07;1.67;;;;;;;23.15;43.73;64396.84;5050819;28;20360;-81
2023/10/26 10:46:17;;;;;;;4.63;2.33;;;;;;;23.07;45.35;64388.47;5049898;28;20542;-81
2023/10/26 10:49:03;;;;;;;5.50;2.03;;;;;;;22.65;44.15;64339.34;5051247;28;20233;-82
2023/10/26 10:51:31;;;;;;;3.50;2.03;;;;;;;22.64;45.64;64338.81;5050367;28;20213;-81
2023/10/26 10:53:59;;;;;;;2.95;1.77;;;;;;;22.61;45.78;64338.28;5050379;28;20205;-81
2023/10/26 10:56:30;;;;;;;8.23;1.92;;;;;;;22.56;45.12;64335.13;5048391;28;20236;-84
2023/10/26 10:58:57;;;;;;;5.57;1.88;;;;;;;22.49;45.21;64325.19;5054752;28;20208;-79
2023/10/26 11:01:27;;;;;;;7.22;2.05;;;;;;;22.51;44.20;64322.09;5053472;28;20240;-78
2023/10/26 11:04:13;;;;;;;4.57;2.22;;;;;;;22.70;47.84;64349.78;5054017;28;20244;-82
2023/10/26 11:06:45;;;;;;;7.65;2.08;;;;;;;23.18;46.07;64399.97;5054407;28;20232;-80
2023/10/26 11:09:27;;;;;;;2.92;2.15;;;;;;;23.06;45.06;64384.28;5049448;28;20232;-80
2023/10/26 11:11:56;;;;;;;4.45;2.65;;;;;;;22.78;46.21;64353.47;5053306;28;20537;-81
2023/10/26 11:14:23;;;;;;;4.82;2.25;;;;;;;22.96;46.46;64376.97;5044923;28;20221;-78
2023/10/26 11:16:52;;;;;;;4.13;2.17;;;;;;;23.26;44.74;64408.34;5054700;28;20231;-78
2023/10/26 11:19:19;;;;;;;6.45;2.00;;;;;;;23.31;44.26;64416.19;5055579;28;20197;-80
2023/10/26 11:21:47;;;;;;;4.80;1.98;;;;;;;23.40;44.62;64423.00;5054107;28;20249;-79
2023/10/26 11:24:19;;;;;;;3.55;1.60;;;;;;;23.28;44.22;64405.25;5053788;28;20199;-80
2023/10/26 11:27:09;;;;;;;4.15;2.03;;;;;;;23.05;46.17;64381.19;5053760;28;20217;-82
2023/10/26 11:29:36;;;;;;;7.30;1.90;;;;;;;22.82;45.97;64360.25;5052848;28;20252;-79
2023/10/26 11:32:03;;;;;;;4.95;1.95;;;;;;;22.57;47.71;64334.09;5053344;28;20209;-81